Time;durP1;ratioP1;P1;durP2;ratioP2;P2;SDS_P1;SDS_P2;PMS_P1;PMS_P2;Temp;Humidity;BMP_temperature;BMP_pressure;BME280_temperature;BME280_humidity;BME280_pressure;Samples;Min_cycle;Max_cycle;Signal;HPM_P1;HPM_P2
2022/05/12 00:01:59;;;;;;;1999.90;999.90;;;10.70;99.90;;;;;;4979992;28;20096;-73
2022/05/12 00:04:26;;;;;;;1999.90;999.90;;;10.70;99.90;;;;;;4955524;28;20074;-72
2022/05/12 00:06:52;;;;;;;1999.90;999.90;;;10.60;99.90;;;;;;4933548;29;20130;-73
2022/05/12 00:09:17;;;;;;;1999.90;999.90;;;10.60;99.90;;;;;;4966411;28;20137;-72
2022/05/12 00:11:43;;;;;;;1999.90;999.90;;;10.60;99.90;;;;;;4957770;28;20043;-73
2022/05/12 00:14:09;;;;;;;1999.90;999.90;;;10.50;99.90;;;;;;4944760;28;20509;-73
2022/05/12 00:16:34;;;;;;;1999.90;999.90;;;10.50;99.90;;;;;;4963446;28;20047;-73
2022/05/12 00:19:00;;;;;;;1999.90;999.90;;;10.50;99.90;;;;;;4942419;28;20035;-73
2022/05/12 00:21:26;;;;;;;1999.90;999.90;;;10.40;99.90;;;;;;4963652;28;20476;-72
2022/05/12 00:23:57;;;;;;;1999.90;999.90;;;10.40;99.90;;;;;;4948222;28;20042;-73
2022/05/12 00:26:29;;;;;;;1999.90;999.90;;;10.30;99.90;;;;;;4961871;28;20082;-73
2022/05/12 00:28:57;;;;;;;1999.90;999.90;;;10.30;99.90;;;;;;4953208;28;20096;-73
2022/05/12 00:31:23;;;;;;;1999.90;999.90;;;10.30;99.90;;;;;;4971373;28;20054;-73
2022/05/12 00:33:48;;;;;;;1999.90;999.90;;;10.30;99.90;;;;;;4948438;28;20034;-73
2022/05/12 00:36:15;;;;;;;1999.90;999.90;;;10.20;99.90;;;;;;4939714;28;20085;-73
2022/05/12 00:38:41;;;;;;;1999.90;999.90;;;10.10;99.90;;;;;;4968061;28;20158;-73
2022/05/12 00:41:07;;;;;;;1999.90;999.90;;;10.10;99.90;;;;;;4984781;28;20126;-73
2022/05/12 00:43:37;;;;;;;1999.90;999.90;;;10.00;99.90;;;;;;4967525;28;20057;-73
2022/05/12 00:46:06;;;;;;;1999.90;999.90;;;10.00;99.90;;;;;;5004166;28;20074;-73
2022/05/12 00:48:32;;;;;;;1999.90;999.90;;;9.90;99.90;;;;;;4985089;28;20050;-73
2022/05/12 00:50:58;;;;;;;1999.90;999.90;;;9.90;99.90;;;;;;4961480;28;20460;-73
2022/05/12 00:53:24;;;;;;;1999.90;999.90;;;9.80;99.90;;;;;;4966581;28;20050;-73
2022/05/12 00:55:51;;;;;;;1999.90;999.90;;;9.80;99.90;;;;;;4950412;28;20445;-73
2022/05/12 00:58:20;;;;;;;1999.90;999.90;;;9.70;99.90;;;;;;4965219;28;20491;-73
2022/05/12 01:00:46;;;;;;;1999.90;999.90;;;9.80;99.90;;;;;;4981285;28;20122;-73
2022/05/12 01:03:22;;;;;;;1999.90;999.90;;;9.70;99.90;;;;;;4948063;28;20402;-73
2022/05/12 01:05:48;;;;;;;1999.90;999.90;;;9.60;99.90;;;;;;4966374;28;20042;-73
2022/05/12 01:08:16;;;;;;;1999.90;999.90;;;9.60;99.90;;;;;;4968005;28;20069;-73
2022/05/12 01:10:47;;;;;;;1999.90;999.90;;;9.50;99.90;;;;;;4950460;28;20051;-73
2022/05/12 01:13:13;;;;;;;1999.90;999.90;;;9.50;99.90;;;;;;4973289;28;20072;-73
2022/05/12 01:15:49;;;;;;;1999.90;999.90;;;9.40;99.90;;;;;;4979168;28;20158;-73
2022/05/12 01:18:17;;;;;;;1999.90;999.90;;;9.30;99.90;;;;;;4981581;28;20050;-73
2022/05/12 01:20:44;;;;;;;1999.90;999.90;;;9.30;99.90;;;;;;4959323;28;20047;-73
2022/05/12 01:23:22;;;;;;;1999.90;999.90;;;9.20;99.90;;;;;;4980338;28;20391;-73
2022/05/12 01:25:48;;;;;;;1999.90;999.90;;;9.20;99.90;;;;;;4982935;28;20096;-73
2022/05/12 01:28:14;;;;;;;1999.90;999.90;;;9.20;99.90;;;;;;4982303;28;20433;-73
2022/05/12 01:30:40;;;;;;;1999.90;999.90;;;9.20;99.90;;;;;;4966006;28;20042;-73
2022/05/12 01:33:06;;;;;;;1999.90;999.90;;;9.20;99.90;;;;;;4987103;28;20121;-73
2022/05/12 01:35:32;;;;;;;1999.90;999.90;;;9.20;99.90;;;;;;4955056;28;20435;-73
2022/05/12 01:37:58;;;;;;;1999.90;999.90;;;9.20;99.90;;;;;;4947271;28;20492;-73
2022/05/12 01:40:26;;;;;;;1999.90;999.90;;;9.20;99.90;;;;;;4967353;28;20046;-73
2022/05/12 01:42:53;;;;;;;1999.90;999.90;;;9.20;99.90;;;;;;4964843;28;20043;-73
2022/05/12 01:45:19;;;;;;;1999.90;999.90;;;9.20;99.90;;;;;;4964743;28;20051;-73
2022/05/12 01:47:46;;;;;;;1999.90;999.90;;;9.20;99.90;;;;;;4943174;28;20520;-73
2022/05/12 01:50:14;;;;;;;1999.90;999.90;;;9.20;99.90;;;;;;4966050;28;20495;-73
2022/05/12 01:52:43;;;;;;;1999.90;999.90;;;9.20;99.90;;;;;;4950469;28;20047;-72
2022/05/12 01:55:14;;;;;;;1999.90;999.90;;;9.10;99.90;;;;;;4949583;28;20047;-73
2022/05/12 01:57:43;;;;;;;1999.90;999.90;;;9.20;99.90;;;;;;4944236;28;20039;-73
2022/05/12 02:00:16;;;;;;;1999.90;999.90;;;9.10;99.90;;;;;;4949342;28;20176;-73
2022/05/12 02:02:42;;;;;;;1999.90;999.90;;;9.20;99.90;;;;;;4949548;28;20050;-73
2022/05/12 02:05:10;;;;;;;1999.90;999.90;;;9.20;99.90;;;;;;4961959;28;20042;-73
2022/05/12 02:07:41;;;;;;;1999.90;999.90;;;9.20;99.90;;;;;;4943284;28;20050;-73
2022/05/12 02:10:09;;;;;;;1999.90;999.90;;;9.20;99.90;;;;;;4950954;28;20049;-73
2022/05/12 02:12:35;;;;;;;1999.90;999.90;;;9.20;99.90;;;;;;4996168;28;20075;-73
2022/05/12 02:15:01;;;;;;;1999.90;999.90;;;9.20;99.90;;;;;;4962402;28;20078;-73
2022/05/12 02:17:27;;;;;;;1999.90;999.90;;;9.30;99.90;;;;;;4991324;28;20035;-73
2022/05/12 02:19:52;;;;;;;1999.90;999.90;;;9.30;99.90;;;;;;4958243;28;20437;-73
2022/05/12 02:22:18;;;;;;;1999.90;999.90;;;9.30;99.90;;;;;;4942521;28;20075;-73
2022/05/12 02:24:45;;;;;;;1999.90;999.90;;;9.20;99.90;;;;;;4965330;28;20560;-73
2022/05/12 02:27:12;;;;;;;1999.90;999.90;;;9.20;99.90;;;;;;4968440;28;20261;-73
2022/05/12 02:29:37;;;;;;;1999.90;999.90;;;9.20;99.90;;;;;;4982973;28;20058;-73
2022/05/12 02:32:03;;;;;;;1999.90;999.90;;;9.20;99.90;;;;;;4973754;28;20420;-73
2022/05/12 02:34:29;;;;;;;1999.90;999.90;;;9.10;99.90;;;;;;4965377;28;20042;-73
2022/05/12 02:37:01;;;;;;;1999.90;999.90;;;9.00;99.90;;;;;;4945690;28;20129;-73
2022/05/12 02:39:37;;;;;;;1999.90;999.90;;;9.00;99.90;;;;;;4945443;28;20496;-73
2022/05/12 02:42:04;;;;;;;1999.90;999.90;;;8.90;99.90;;;;;;4988247;28;20467;-73
2022/05/12 02:44:30;;;;;;;1999.90;999.90;;;8.80;99.90;;;;;;4948349;28;20047;-73
2022/05/12 02:46:56;;;;;;;1999.90;999.90;;;8.90;99.90;;;;;;4965853;28;20081;-73
2022/05/12 02:49:22;;;;;;;1999.90;999.90;;;8.80;99.90;;;;;;4949673;28;20406;-73
2022/05/12 02:51:48;;;;;;;1999.90;999.90;;;8.80;99.90;;;;;;4985795;28;20050;-73
2022/05/12 02:54:16;;;;;;;1999.90;999.90;;;8.70;99.90;;;;;;4949837;28;20046;-73
2022/05/12 02:56:42;;;;;;;1999.90;999.90;;;8.70;99.90;;;;;;4982781;28;20067;-73
2022/05/12 02:59:08;;;;;;;1999.90;999.90;;;8.70;99.90;;;;;;4966298;28;20467;-73
2022/05/12 03:01:34;;;;;;;1999.90;999.90;;;8.70;99.90;;;;;;4957875;28;20058;-73
2022/05/12 03:04:00;;;;;;;1999.90;999.90;;;8.70;99.90;;;;;;4965077;28;20073;-73
2022/05/12 03:06:26;;;;;;;1999.90;999.90;;;8.60;99.90;;;;;;4958911;28;20045;-73
2022/05/12 03:08:53;;;;;;;1999.90;999.90;;;8.70;99.90;;;;;;4949976;28;20046;-73
2022/05/12 03:11:19;;;;;;;1999.90;999.90;;;8.70;99.90;;;;;;4968817;28;20047;-73
2022/05/12 03:13:46;;;;;;;1999.90;999.90;;;8.70;99.90;;;;;;4975642;28;20039;-73
2022/05/12 03:16:12;;;;;;;1999.90;999.90;;;8.70;99.90;;;;;;4979621;28;20498;-73
2022/05/12 03:18:39;;;;;;;1999.90;999.90;;;8.70;99.90;;;;;;4951498;28;20413;-73
2022/05/12 03:21:05;;;;;;;1999.90;999.90;;;8.70;99.90;;;;;;4976120;28;20042;-73
2022/05/12 03:23:31;;;;;;;1999.90;999.90;;;8.70;99.90;;;;;;4964980;28;20391;-73
2022/05/12 03:25:57;;;;;;;1999.90;999.90;;;8.60;99.90;;;;;;4955575;28;20092;-73
2022/05/12 03:28:23;;;;;;;1999.90;999.90;;;8.60;99.90;;;;;;4946397;28;20528;-73
2022/05/12 03:30:50;;;;;;;1999.90;999.90;;;8.60;99.90;;;;;;4983073;28;20043;-73
2022/05/12 03:33:16;;;;;;;1999.90;999.90;;;8.50;99.90;;;;;;4932484;28;20459;-73
2022/05/12 03:35:41;;;;;;;1999.90;999.90;;;8.60;99.90;;;;;;4982103;28;20122;-73
2022/05/12 03:38:07;;;;;;;1999.90;999.90;;;8.50;99.90;;;;;;4948742;28;20038;-73
2022/05/12 03:40:33;;;;;;;1999.90;999.90;;;8.50;99.90;;;;;;4963052;28;20082;-73
2022/05/12 03:42:59;;;;;;;1999.90;999.90;;;8.50;99.90;;;;;;4943679;28;20074;-73
2022/05/12 03:45:29;;;;;;;1999.90;999.90;;;8.40;99.90;;;;;;4964660;28;20111;-73
2022/05/12 03:47:56;;;;;;;1999.90;999.90;;;8.40;99.90;;;;;;4964432;28;20145;-73
2022/05/12 03:50:25;;;;;;;1999.90;999.90;;;8.40;99.90;;;;;;4955905;28;20062;-73
2022/05/12 03:52:52;;;;;;;1999.90;999.90;;;8.40;99.90;;;;;;4981330;28;20056;-73
2022/05/12 03:55:21;;;;;;;1999.90;999.90;;;8.40;99.90;;;;;;4974921;28;20047;-73
2022/05/12 03:57:48;;;;;;;1999.90;999.90;;;8.50;99.90;;;;;;4949357;28;20460;-74
2022/05/12 04:00:19;;;;;;;1999.90;999.90;;;8.50;99.90;;;;;;4964702;28;20410;-73
2022/05/12 04:02:46;;;;;;;1999.90;999.90;;;8.60;99.90;;;;;;4991705;28;20502;-73
2022/05/12 04:05:12;;;;;;;1999.90;999.90;;;8.60;99.90;;;;;;4962383;28;20046;-73
2022/05/12 04:07:43;;;;;;;1999.90;999.90;;;8.60;99.90;;;;;;4990849;28;20051;-73
2022/05/12 04:10:11;;;;;;;1999.90;999.90;;;8.60;99.90;;;;;;4980924;28;20043;-73
2022/05/12 04:12:36;;;;;;;1999.90;999.90;;;8.60;99.90;;;;;;4957652;28;20053;-73
2022/05/12 04:15:02;;;;;;;1999.90;999.90;;;8.60;99.90;;;;;;4961675;28;20043;-73
2022/05/12 04:17:28;;;;;;;1999.90;999.90;;;8.60;99.90;;;;;;4962979;28;20043;-73
2022/05/12 04:19:54;;;;;;;1999.90;999.90;;;8.60;99.90;;;;;;4981186;28;20472;-73
2022/05/12 04:22:19;;;;;;;1999.90;999.90;;;8.70;99.90;;;;;;4948220;28;20078;-73
2022/05/12 04:24:45;;;;;;;1999.90;999.90;;;8.70;99.90;;;;;;4962699;28;20054;-73
2022/05/12 04:27:12;;;;;;;1999.90;999.90;;;8.70;99.90;;;;;;4958673;28;20043;-73
2022/05/12 04:29:42;;;;;;;1999.90;999.90;;;8.70;99.90;;;;;;4968098;28;20055;-73
2022/05/12 04:32:08;;;;;;;1999.90;999.90;;;8.70;99.90;;;;;;4995599;28;20431;-73
2022/05/12 04:37:29;;;;;;;1999.90;999.90;;;8.80;99.90;;;;;;4996339;28;20047;-73
2022/05/12 04:39:55;;;;;;;1999.90;999.90;;;8.90;99.90;;;;;;4968107;28;20039;-73
2022/05/12 04:42:21;;;;;;;1999.90;999.90;;;8.90;99.90;;;;;;4960292;28;20461;-73
2022/05/12 04:44:46;;;;;;;1999.90;999.90;;;9.00;99.90;;;;;;4968543;28;20035;-73
2022/05/12 04:47:12;;;;;;;1999.90;999.90;;;9.10;99.90;;;;;;4939982;28;20038;-73
2022/05/12 04:49:38;;;;;;;1999.90;999.90;;;9.20;99.90;;;;;;4939578;28;20071;-73
2022/05/12 04:52:04;;;;;;;1999.90;999.90;;;9.20;99.90;;;;;;4975982;28;20057;-73
2022/05/12 04:54:29;;;;;;;1999.90;999.90;;;9.60;99.90;;;;;;4967123;28;20129;-73
2022/05/12 04:56:56;;;;;;;1999.90;999.90;;;10.10;99.90;;;;;;4965525;28;20467;-73
2022/05/12 04:59:22;;;;;;;1999.90;999.90;;;10.40;99.90;;;;;;4965878;28;20043;-73
2022/05/12 05:01:48;;;;;;;1999.90;999.90;;;10.80;99.90;;;;;;4995773;28;20039;-73
2022/05/12 05:04:14;;;;;;;1999.90;999.90;;;10.90;99.90;;;;;;4961418;28;20080;-73
2022/05/12 05:06:39;;;;;;;1999.90;999.90;;;10.80;99.90;;;;;;4950265;28;20039;-73
2022/05/12 05:09:06;;;;;;;1999.90;999.90;;;10.70;99.90;;;;;;4981527;28;20491;-73
2022/05/12 05:11:36;;;;;;;1999.90;999.90;;;10.60;99.90;;;;;;4946744;28;20402;-73
2022/05/12 05:14:02;;;;;;;1999.90;999.90;;;10.60;99.90;;;;;;4981425;28;20078;-73
2022/05/12 05:16:28;;;;;;;1999.90;999.90;;;10.50;99.90;;;;;;4944618;28;20062;-73
2022/05/12 05:18:53;;;;;;;1999.90;999.90;;;10.60;99.90;;;;;;4947847;28;20039;-73
2022/05/12 05:21:19;;;;;;;1999.90;999.90;;;10.60;99.90;;;;;;4960746;28;20047;-73
2022/05/12 05:23:44;;;;;;;1999.90;999.90;;;10.70;99.90;;;;;;4968179;28;20058;-73
2022/05/12 05:26:11;;;;;;;1999.90;999.90;;;10.80;99.90;;;;;;4968288;28;20108;-73
2022/05/12 05:28:37;;;;;;;1999.90;999.90;;;10.90;99.90;;;;;;4951787;28;20130;-73
2022/05/12 05:31:04;;;;;;;1999.90;999.90;;;11.30;99.90;;;;;;4991242;28;20396;-73
2022/05/12 05:33:30;;;;;;;1999.90;999.90;;;12.30;99.90;;;;;;4947827;28;20611;-73
2022/05/12 05:35:57;;;;;;;1999.90;999.90;;;13.40;99.90;;;;;;4947077;28;20044;-73
2022/05/12 05:38:23;;;;;;;1999.90;999.90;;;14.40;99.90;;;;;;4932814;28;20117;-73
2022/05/12 05:40:48;;;;;;;1999.90;999.90;;;15.20;99.90;;;;;;4948605;28;20039;-73
2022/05/12 05:43:14;;;;;;;1999.90;999.90;;;15.90;99.90;;;;;;4959944;28;20046;-74
2022/05/12 05:45:40;;;;;;;1999.90;999.90;;;16.60;99.90;;;;;;4945495;28;20059;-74
2022/05/12 05:48:06;;;;;;;1999.90;999.90;;;17.20;99.90;;;;;;4953876;28;20047;-73
2022/05/12 05:53:30;;;;;;;1999.90;999.90;;;17.80;99.90;;;;;;4950426;28;20070;-74
2022/05/12 05:56:00;;;;;;;1999.90;999.90;;;17.90;99.90;;;;;;4971157;28;20035;-73
2022/05/12 05:58:27;;;;;;;1999.90;999.90;;;18.30;99.90;;;;;;4989855;28;20388;-73
2022/05/12 06:00:54;;;;;;;1999.90;999.90;;;18.70;99.90;;;;;;4981636;28;20078;-74
2022/05/12 06:03:20;;;;;;;1999.90;999.90;;;18.80;99.90;;;;;;4976321;28;20129;-73
2022/05/12 06:05:46;;;;;;;1999.90;999.90;;;18.70;99.90;;;;;;4977285;28;20118;-74
2022/05/12 06:08:14;;;;;;;1999.90;999.90;;;18.10;99.90;;;;;;4946674;28;20471;-74
2022/05/12 06:10:41;;;;;;;1999.90;999.90;;;17.80;99.90;;;;;;4952439;28;20494;-73
2022/05/12 06:13:08;;;;;;;1999.90;999.90;;;18.10;99.90;;;;;;4951142;28;20047;-74
2022/05/12 06:15:34;;;;;;;1999.90;999.90;;;18.50;99.90;;;;;;4933584;29;20104;-71
2022/05/12 06:18:04;;;;;;;1999.90;999.90;;;19.00;99.90;;;;;;4948257;28;20047;-71
2022/05/12 06:20:30;;;;;;;1999.90;999.90;;;19.50;99.90;;;;;;4954483;28;20043;-71
2022/05/12 06:22:56;;;;;;;1999.90;999.90;;;19.80;99.90;;;;;;4966276;28;20057;-71
2022/05/12 06:25:22;;;;;;;1999.90;999.90;;;19.80;99.90;;;;;;4978961;28;20047;-71
2022/05/12 06:27:47;;;;;;;1999.90;999.90;;;19.80;99.90;;;;;;4948064;28;20046;-71
2022/05/12 06:30:14;;;;;;;1999.90;999.90;;;19.80;99.90;;;;;;4931299;29;20039;-71
2022/05/12 06:32:41;;;;;;;1999.90;999.90;;;19.80;99.90;;;;;;4951652;28;20043;-71
2022/05/12 06:35:08;;;;;;;1999.90;999.90;;;19.80;99.90;;;;;;4947542;28;20051;-71
2022/05/12 06:37:35;;;;;;;1999.90;999.90;;;20.10;99.90;;;;;;4988465;28;20074;-71
2022/05/12 06:40:01;;;;;;;1999.90;999.90;;;20.40;99.90;;;;;;4977853;28;20448;-71
2022/05/12 06:42:27;;;;;;;1999.90;999.90;;;20.50;99.90;;;;;;4949426;28;20054;-71
2022/05/12 06:44:54;;;;;;;1999.90;999.90;;;20.40;99.90;;;;;;4947662;28;20047;-71
2022/05/12 06:47:20;;;;;;;1999.90;999.90;;;20.40;99.90;;;;;;4979615;28;20054;-71
2022/05/12 06:49:50;;;;;;;1999.90;999.90;;;20.30;99.90;;;;;;4982067;28;20060;-71
2022/05/12 06:52:15;;;;;;;1999.90;999.90;;;20.20;99.90;;;;;;4987309;28;20388;-71
2022/05/12 06:54:41;;;;;;;1999.90;999.90;;;20.00;99.90;;;;;;4934308;28;20042;-71
2022/05/12 06:57:07;;;;;;;1999.90;999.90;;;19.90;99.90;;;;;;4964723;28;20043;-71
2022/05/12 06:59:37;;;;;;;1999.90;999.90;;;20.10;99.90;;;;;;4965494;28;20053;-71
2022/05/12 07:02:04;;;;;;;1999.90;999.90;;;20.20;99.90;;;;;;4967070;28;20055;-71
2022/05/12 07:04:31;;;;;;;1999.90;999.90;;;20.20;99.90;;;;;;4949182;28;20158;-71
2022/05/12 07:06:57;;;;;;;1999.90;999.90;;;20.30;99.90;;;;;;4931303;28;20088;-72
2022/05/12 07:09:24;;;;;;;1999.90;999.90;;;20.20;99.90;;;;;;4959796;28;20042;-72
2022/05/12 07:11:50;;;;;;;1999.90;999.90;;;20.00;99.90;;;;;;4961662;28;20058;-72
2022/05/12 07:14:17;;;;;;;1999.90;999.90;;;20.30;99.90;;;;;;4951463;28;20034;-71
2022/05/12 07:16:46;;;;;;;1999.90;999.90;;;20.60;99.90;;;;;;4960511;28;20046;-71
2022/05/12 07:19:15;;;;;;;1999.90;999.90;;;20.90;99.90;;;;;;4950125;28;20444;-72
2022/05/12 07:27:10;;;;;;;1999.90;999.90;;;20.50;99.90;;;;;;4948616;29;20388;-72
2022/05/12 07:29:37;;;;;;;1999.90;999.90;;;19.60;99.90;;;;;;4933946;28;20053;-71
2022/05/12 07:32:03;;;;;;;1999.90;999.90;;;18.90;99.90;;;;;;4965164;28;20047;-71
2022/05/12 07:34:29;;;;;;;1999.90;999.90;;;19.00;99.90;;;;;;4963211;28;20057;-71
2022/05/12 07:36:55;;;;;;;1999.90;999.90;;;19.20;99.90;;;;;;4947033;28;20047;-71
2022/05/12 07:39:25;;;;;;;1999.90;999.90;;;18.70;99.90;;;;;;4955928;28;20396;-71
2022/05/12 07:41:52;;;;;;;1999.90;999.90;;;18.00;99.90;;;;;;4985091;28;20044;-71
2022/05/12 07:44:19;;;;;;;1999.90;999.90;;;17.50;99.90;;;;;;4992291;28;20046;-71
2022/05/12 07:46:45;;;;;;;1999.90;999.90;;;17.00;99.90;;;;;;4961024;28;20570;-71
2022/05/12 07:49:12;;;;;;;1999.90;999.90;;;16.80;99.90;;;;;;5016873;28;20078;-71
2022/05/12 07:51:37;;;;;;;1999.90;999.90;;;16.60;99.90;;;;;;5067023;28;20065;-71
2022/05/12 07:54:03;;;;;;;1999.90;999.90;;;16.50;99.90;;;;;;5012083;28;20115;-71
2022/05/12 07:56:30;;;;;;;1999.90;999.90;;;16.50;99.90;;;;;;4946514;28;20047;-71
2022/05/12 07:58:57;;;;;;;1999.90;999.90;;;16.50;99.90;;;;;;4962135;28;20047;-71
2022/05/12 08:01:24;;;;;;;1999.90;999.90;;;16.50;99.90;;;;;;4946269;28;20515;-71
2022/05/12 08:03:50;;;;;;;1999.90;999.90;;;16.50;99.90;;;;;;4946704;28;20047;-71
2022/05/12 08:06:17;;;;;;;1999.90;999.90;;;16.50;99.90;;;;;;4930310;28;20035;-71
2022/05/12 08:08:44;;;;;;;1999.90;999.90;;;16.50;99.90;;;;;;4952679;28;20486;-71
2022/05/12 08:11:10;;;;;;;1999.90;999.90;;;16.50;99.90;;;;;;4964517;28;20082;-71
2022/05/12 08:13:37;;;;;;;1999.90;999.90;;;16.60;99.90;;;;;;4965934;28;20639;-71
2022/05/12 08:16:04;;;;;;;1999.90;999.90;;;16.70;99.90;;;;;;4944035;28;20039;-71
2022/05/12 08:18:32;;;;;;;1999.90;999.90;;;16.70;99.90;;;;;;4946476;28;20495;-71
2022/05/12 08:20:58;;;;;;;1999.90;999.90;;;16.70;99.90;;;;;;4978729;28;20078;-72
2022/05/12 08:23:24;;;;;;;1999.90;999.90;;;16.80;99.90;;;;;;4983821;28;20455;-71
2022/05/12 08:25:51;;;;;;;1999.90;999.90;;;17.20;99.90;;;;;;4998290;28;20078;-71
2022/05/12 08:28:19;;;;;;;1999.90;999.90;;;17.40;99.90;;;;;;4974960;28;20129;-71
2022/05/12 08:30:46;;;;;;;1999.90;999.90;;;18.10;99.90;;;;;;4978412;28;20055;-72
2022/05/12 08:33:12;;;;;;;1999.90;999.90;;;18.80;99.90;;;;;;4938594;28;20395;-71
2022/05/12 08:35:39;;;;;;;1999.90;999.90;;;19.30;99.90;;;;;;4946290;28;20515;-72
2022/05/12 08:38:06;;;;;;;1999.90;999.90;;;19.90;99.90;;;;;;4978355;28;20039;-71
2022/05/12 08:40:38;;;;;;;1999.90;999.90;;;20.20;97.50;;;;;;4978175;28;20084;-72
2022/05/12 08:43:13;;;;;;;1999.90;999.90;;;20.40;97.10;;;;;;4930343;29;20049;-72
2022/05/12 08:45:39;;;;;;;1999.90;999.90;;;20.50;99.30;;;;;;4946027;28;20092;-71
2022/05/12 08:48:05;;;;;;;1999.90;999.90;;;20.30;98.90;;;;;;4946569;28;20055;-71
2022/05/12 08:50:33;;;;;;;1999.90;999.90;;;19.80;94.50;;;;;;4929984;28;20063;-71
2022/05/12 08:53:01;;;;;;;1999.90;999.90;;;19.90;94.40;;;;;;4950830;28;20054;-72
2022/05/12 08:56:08;;;;;;;1999.90;999.90;;;20.00;95.20;;;;;;4964244;28;20047;-72
2022/05/12 08:58:40;;;;;;;1999.90;999.90;;;20.40;94.90;;;;;;4974319;28;20142;-72
2022/05/12 09:01:17;;;;;;;1999.90;999.90;;;20.60;93.60;;;;;;4966328;28;20365;-72
2022/05/12 09:03:52;;;;;;;1999.90;999.90;;;20.80;93.30;;;;;;4945610;28;20043;-72
2022/05/12 09:06:28;;;;;;;1999.90;999.90;;;20.90;91.20;;;;;;4947282;28;20046;-72
2022/05/12 09:09:10;;;;;;;1999.90;999.90;;;21.30;93.20;;;;;;4981667;28;20043;-72
2022/05/12 09:11:56;;;;;;;1999.90;999.90;;;21.60;92.10;;;;;;4932056;28;20509;-71
2022/05/12 09:14:39;;;;;;;1999.90;999.90;;;21.60;88.80;;;;;;4981751;28;20054;-72
2022/05/12 09:17:06;;;;;;;1999.90;999.90;;;22.00;90.50;;;;;;4932894;28;20146;-72
2022/05/12 09:19:31;;;;;;;1999.90;999.90;;;21.60;89.80;;;;;;4981744;28;20043;-72
2022/05/12 09:21:57;;;;;;;1999.90;999.90;;;21.00;90.40;;;;;;4935603;28;20541;-72
2022/05/12 09:24:23;;;;;;;1999.90;999.90;;;20.80;91.10;;;;;;4949158;28;20063;-72
2022/05/12 09:26:52;;;;;;;1999.90;999.90;;;20.50;88.40;;;;;;4964930;28;20048;-72
2022/05/12 09:29:29;;;;;;;1999.90;999.90;;;20.00;87.40;;;;;;4945628;28;20047;-72
2022/05/12 09:32:15;;;;;;;1999.90;999.90;;;19.30;84.70;;;;;;4951969;28;20441;-72
2022/05/12 09:34:43;;;;;;;1999.90;999.90;;;19.00;89.70;;;;;;4951930;28;20458;-72
2022/05/12 09:37:12;;;;;;;1999.90;999.90;;;19.30;90.00;;;;;;5000409;28;20454;-71
2022/05/12 09:39:41;;;;;;;1999.90;999.90;;;19.00;90.20;;;;;;4967735;28;20074;-72
2022/05/12 09:42:16;;;;;;;1999.90;999.90;;;18.60;84.90;;;;;;4999743;28;20043;-72
2022/05/12 09:44:55;;;;;;;1999.90;999.90;;;18.50;89.10;;;;;;4951529;28;20042;-72
2022/05/12 09:47:20;;;;;;;1999.90;999.90;;;18.70;91.30;;;;;;4936185;28;20058;-72
2022/05/12 09:49:47;;;;;;;1999.90;999.90;;;19.00;90.20;;;;;;4948441;28;20502;-72
2022/05/12 09:52:19;;;;;;;1999.90;999.90;;;19.20;89.50;;;;;;4967824;28;20643;-72
2022/05/12 09:54:45;;;;;;;1999.90;999.90;;;19.50;90.50;;;;;;4967753;28;20549;-72
2022/05/12 09:57:26;;;;;;;1999.90;999.90;;;19.20;88.30;;;;;;4950961;28;20039;-72
2022/05/12 09:59:57;;;;;;;1999.90;999.90;;;18.70;86.40;;;;;;4965382;28;20053;-72
2022/05/12 10:08:24;;;;;;;1999.90;999.90;;;19.10;89.90;;;;;;4951354;28;20404;-72
2022/05/12 10:11:00;;;;;;;1999.90;999.90;;;19.40;87.00;;;;;;4957658;28;20057;-71
2022/05/12 10:13:38;;;;;;;1999.90;999.90;;;19.50;81.10;;;;;;4963371;28;20054;-72
2022/05/12 10:16:06;;;;;;;1999.90;999.90;;;19.20;81.50;;;;;;4979716;28;20047;-73
2022/05/12 10:18:54;;;;;;;1999.90;999.90;;;19.40;83.80;;;;;;4947482;28;20130;-73
2022/05/12 10:24:37;;;;;;;1999.90;999.90;;;20.10;78.90;;;;;;4907943;28;20130;-73
2022/05/12 10:27:07;;;;;;;;;;;20.40;79.90;;;;;;4889170;28;20083;-73
2022/05/12 10:30:24;;;;;;;1999.90;999.90;;;20.50;76.90;;;;;;4891240;28;20419;-73
2022/05/12 10:33:15;;;;;;;1999.90;999.90;;;20.50;73.60;;;;;;4903900;28;20053;-73
2022/05/12 10:35:44;;;;;;;1999.90;999.90;;;20.40;74.70;;;;;;4904799;28;20119;-73
2022/05/12 10:38:37;;;;;;;1999.90;999.90;;;20.40;73.30;;;;;;4902852;28;20138;-73
2022/05/12 10:41:14;;;;;;;;;;;20.40;73.20;;;;;;4871044;28;20941;-73
2022/05/12 10:44:05;;;;;;;1999.90;999.90;;;20.50;70.30;;;;;;4880401;28;20544;-73
2022/05/12 10:46:52;;;;;;;1999.90;999.90;;;20.40;71.40;;;;;;4923661;28;20046;-73
2022/05/12 10:49:21;;;;;;;1999.90;999.90;;;20.10;71.70;;;;;;4913975;28;20055;-73
2022/05/12 10:52:27;;;;;;;1999.90;999.90;;;20.00;75.40;;;;;;4913484;28;20467;-73
2022/05/12 10:55:18;;;;;;;1999.90;999.90;;;20.00;72.20;;;;;;4932101;29;20598;-73
2022/05/12 10:57:53;;;;;;;1999.90;999.90;;;20.00;72.20;;;;;;4930126;29;20082;-73
2022/05/12 11:00:48;;;;;;;1999.90;999.90;;;20.10;70.80;;;;;;4886794;28;20076;-72
2022/05/12 11:03:21;;;;;;;1999.90;999.90;;;20.20;70.10;;;;;;4947301;28;20046;-73
2022/05/12 11:05:53;;;;;;;1999.90;999.90;;;20.10;67.60;;;;;;4963779;28;20088;-73
2022/05/12 11:08:27;;;;;;;1999.90;999.90;;;19.90;66.30;;;;;;4955434;28;20051;-73
2022/05/12 11:11:08;;;;;;;1999.90;999.90;;;19.60;68.80;;;;;;4937854;28;21805;-73
2022/05/12 11:13:38;;;;;;;1999.90;999.90;;;19.60;71.00;;;;;;4950557;28;20129;-73
2022/05/12 11:16:10;;;;;;;1999.90;999.90;;;19.70;71.00;;;;;;4952296;28;20092;-73
2022/05/12 11:19:08;;;;;;;1999.90;999.90;;;20.00;70.80;;;;;;4938239;28;20046;-73
2022/05/12 11:21:43;;;;;;;1999.90;999.90;;;20.60;72.60;;;;;;4956535;28;20094;-73
2022/05/12 11:24:15;;;;;;;1999.90;999.90;;;20.90;70.20;;;;;;4952079;28;20079;-73
2022/05/12 11:26:46;;;;;;;1999.90;999.90;;;21.20;71.40;;;;;;4942750;28;20501;-73
2022/05/12 11:30:06;;;;;;;1999.90;999.90;;;21.40;68.80;;;;;;4949505;28;20039;-73
2022/05/12 11:32:34;;;;;;;1999.90;999.90;;;21.90;69.70;;;;;;4947460;28;20445;-73
2022/05/12 11:35:12;;;;;;;1999.90;999.90;;;22.00;65.00;;;;;;4945688;28;20491;-73
2022/05/12 11:37:40;;;;;;;1999.90;999.90;;;21.70;65.00;;;;;;4942718;28;20050;-73
2022/05/12 11:40:08;;;;;;;1999.90;999.90;;;21.40;63.40;;;;;;4944182;28;20130;-73
2022/05/12 11:45:49;;;;;;;1999.90;999.90;;;21.20;67.40;;;;;;4961178;28;20055;-73
2022/05/12 11:48:30;;;;;;;1999.90;999.90;;;21.10;65.60;;;;;;4983711;28;20085;-73
2022/05/12 11:51:05;;;;;;;1999.90;999.90;;;21.00;66.40;;;;;;4946254;28;20569;-72
2022/05/12 11:53:45;;;;;;;1999.90;999.90;;;20.80;65.50;;;;;;4946875;28;20055;-73
2022/05/12 11:56:12;;;;;;;1999.90;999.90;;;20.20;66.40;;;;;;4950252;28;20043;-73
2022/05/12 11:58:40;;;;;;;1999.90;999.90;;;20.20;68.00;;;;;;4937637;28;20137;-73
2022/05/12 12:01:24;;;;;;;1999.90;999.90;;;20.50;70.40;;;;;;4930337;28;20054;-71
2022/05/12 12:04:02;;;;;;;1999.90;999.90;;;20.80;68.60;;;;;;4965815;28;20050;-71
2022/05/12 12:06:41;;;;;;;1999.90;999.90;;;21.00;67.00;;;;;;4981787;28;20195;-71
2022/05/12 12:09:25;;;;;;;1999.90;999.90;;;21.50;68.30;;;;;;4975913;28;20080;-71
2022/05/12 12:11:51;;;;;;;1999.90;999.90;;;22.00;67.50;;;;;;5018084;28;20407;-71
2022/05/12 12:14:42;;;;;;;1999.90;999.90;;;22.00;63.30;;;;;;4984199;28;20032;-70
2022/05/12 12:17:29;;;;;;;1999.90;999.90;;;21.80;63.40;;;;;;4965793;28;20057;-71
2022/05/12 12:19:57;;;;;;;1999.90;999.90;;;22.00;65.70;;;;;;4938116;28;20051;-71
2022/05/12 12:22:26;;;;;;;1999.90;999.90;;;21.80;61.60;;;;;;4996620;28;20094;-72
2022/05/12 12:25:05;;;;;;;1999.90;999.90;;;21.80;65.60;;;;;;4992223;28;20735;-72
2022/05/12 12:27:46;;;;;;;1999.90;999.90;;;21.50;62.60;;;;;;4980008;28;20050;-72
2022/05/12 12:30:38;;;;;;;1999.90;999.90;;;21.00;62.00;;;;;;5019295;28;20039;-73
2022/05/12 12:33:09;;;;;;;1999.90;999.90;;;20.80;65.00;;;;;;4967907;28;20078;-73
2022/05/12 12:36:12;;;;;;;1999.90;999.90;;;21.00;65.20;;;;;;4967672;28;20134;-72
2022/05/12 12:38:47;;;;;;;1999.90;999.90;;;21.20;64.00;;;;;;5009929;28;20479;-72
2022/05/12 12:41:18;;;;;;;1999.90;999.90;;;21.00;61.00;;;;;;4976708;28;20096;-72